sensor_id;sensor_type;location;lat;lon;timestamp;temperature;humidity
49549;DHT22;35450;44.518;7.466;2023-08-06T00:00:28;21.30;76.00
49549;DHT22;35450;44.518;7.466;2023-08-06T00:03:32;21.40;78.40
49549;DHT22;35450;44.518;7.466;2023-08-06T00:06:36;21.20;78.70
49549;DHT22;35450;44.518;7.466;2023-08-06T00:09:40;21.10;76.40
49549;DHT22;35450;44.518;7.466;2023-08-06T00:12:44;21.00;75.70
49549;DHT22;35450;44.518;7.466;2023-08-06T00:15:48;21.00;76.10
49549;DHT22;35450;44.518;7.466;2023-08-06T00:18:52;21.00;77.70
49549;DHT22;35450;44.518;7.466;2023-08-06T00:21:56;21.00;77.80
49549;DHT22;35450;44.518;7.466;2023-08-06T00:25:01;21.10;76.60
49549;DHT22;35450;44.518;7.466;2023-08-06T00:28:05;21.00;78.60
49549;DHT22;35450;44.518;7.466;2023-08-06T00:31:09;20.90;74.80
49549;DHT22;35450;44.518;7.466;2023-08-06T00:34:13;20.80;74.40
49549;DHT22;35450;44.518;7.466;2023-08-06T00:37:17;21.00;73.30
49549;DHT22;35450;44.518;7.466;2023-08-06T00:40:21;20.90;74.70
49549;DHT22;35450;44.518;7.466;2023-08-06T00:43:27;20.80;74.80
49549;DHT22;35450;44.518;7.466;2023-08-06T00:46:32;21.00;76.30
49549;DHT22;35450;44.518;7.466;2023-08-06T00:49:37;20.90;76.10
49549;DHT22;35450;44.518;7.466;2023-08-06T00:52:42;20.90;77.30
49549;DHT22;35450;44.518;7.466;2023-08-06T00:55:47;20.90;78.60
49549;DHT22;35450;44.518;7.466;2023-08-06T00:58:52;20.70;79.30
49549;DHT22;35450;44.518;7.466;2023-08-06T01:01:56;20.60;77.50
49549;DHT22;35450;44.518;7.466;2023-08-06T01:05:00;20.50;77.90
49549;DHT22;35450;44.518;7.466;2023-08-06T01:08:28;20.50;77.70
49549;DHT22;35450;44.518;7.466;2023-08-06T01:12:37;20.40;79.40
49549;DHT22;35450;44.518;7.466;2023-08-06T01:15:27;20.30;77.70
49549;DHT22;35450;44.518;7.466;2023-08-06T01:18:33;20.40;75.70
49549;DHT22;35450;44.518;7.466;2023-08-06T01:21:37;20.50;77.40
49549;DHT22;35450;44.518;7.466;2023-08-06T01:24:43;20.40;75.80
49549;DHT22;35450;44.518;7.466;2023-08-06T01:27:50;20.40;75.20
49549;DHT22;35450;44.518;7.466;2023-08-06T01:30:55;20.50;74.90
49549;DHT22;35450;44.518;7.466;2023-08-06T01:34:04;20.40;75.60
49549;DHT22;35450;44.518;7.466;2023-08-06T01:37:10;20.40;78.50
49549;DHT22;35450;44.518;7.466;2023-08-06T01:40:14;20.20;75.80
49549;DHT22;35450;44.518;7.466;2023-08-06T01:43:19;20.20;74.90
49549;DHT22;35450;44.518;7.466;2023-08-06T01:46:23;20.30;75.70
49549;DHT22;35450;44.518;7.466;2023-08-06T01:49:27;20.30;75.50
49549;DHT22;35450;44.518;7.466;2023-08-06T01:52:31;20.20;76.30
49549;DHT22;35450;44.518;7.466;2023-08-06T01:55:35;20.30;76.10
49549;DHT22;35450;44.518;7.466;2023-08-06T01:58:40;20.30;76.40
49549;DHT22;35450;44.518;7.466;2023-08-06T02:01:43;20.20;75.60
49549;DHT22;35450;44.518;7.466;2023-08-06T02:04:48;20.30;75.10
49549;DHT22;35450;44.518;7.466;2023-08-06T02:07:52;20.10;75.70
49549;DHT22;35450;44.518;7.466;2023-08-06T02:10:56;20.10;75.90
49549;DHT22;35450;44.518;7.466;2023-08-06T02:14:01;20.00;77.70
49549;DHT22;35450;44.518;7.466;2023-08-06T02:17:06;19.90;79.20
49549;DHT22;35450;44.518;7.466;2023-08-06T02:20:10;19.80;80.10
49549;DHT22;35450;44.518;7.466;2023-08-06T02:23:14;19.80;80.60
49549;DHT22;35450;44.518;7.466;2023-08-06T02:26:18;19.70;80.10
49549;DHT22;35450;44.518;7.466;2023-08-06T02:29:22;19.70;69.30
49549;DHT22;35450;44.518;7.466;2023-08-06T02:32:26;19.90;65.10
49549;DHT22;35450;44.518;7.466;2023-08-06T02:35:30;20.10;63.50
49549;DHT22;35450;44.518;7.466;2023-08-06T02:38:34;20.30;63.00
49549;DHT22;35450;44.518;7.466;2023-08-06T02:41:38;20.50;62.60
49549;DHT22;35450;44.518;7.466;2023-08-06T02:44:42;20.50;66.30
49549;DHT22;35450;44.518;7.466;2023-08-06T02:47:46;20.50;68.30
49549;DHT22;35450;44.518;7.466;2023-08-06T02:50:50;20.30;71.00
49549;DHT22;35450;44.518;7.466;2023-08-06T02:53:54;20.30;71.80
49549;DHT22;35450;44.518;7.466;2023-08-06T02:56:59;20.20;71.50
49549;DHT22;35450;44.518;7.466;2023-08-06T03:00:07;20.20;73.50
49549;DHT22;35450;44.518;7.466;2023-08-06T03:03:11;19.90;73.20
49549;DHT22;35450;44.518;7.466;2023-08-06T03:06:21;19.90;71.10
49549;DHT22;35450;44.518;7.466;2023-08-06T03:09:29;20.00;71.30
49549;DHT22;35450;44.518;7.466;2023-08-06T03:12:34;20.00;71.70
49549;DHT22;35450;44.518;7.466;2023-08-06T03:15:40;19.90;72.00
49549;DHT22;35450;44.518;7.466;2023-08-06T03:18:47;19.90;71.80
49549;DHT22;35450;44.518;7.466;2023-08-06T03:21:52;19.90;72.00
49549;DHT22;35450;44.518;7.466;2023-08-06T03:24:56;19.90;72.20
49549;DHT22;35450;44.518;7.466;2023-08-06T03:28:02;19.80;72.70
49549;DHT22;35450;44.518;7.466;2023-08-06T03:31:06;19.70;73.50
49549;DHT22;35450;44.518;7.466;2023-08-06T03:34:18;19.60;73.80
49549;DHT22;35450;44.518;7.466;2023-08-06T03:37:23;19.50;72.80
49549;DHT22;35450;44.518;7.466;2023-08-06T03:40:28;19.50;74.80
49549;DHT22;35450;44.518;7.466;2023-08-06T03:43:34;19.50;74.70
49549;DHT22;35450;44.518;7.466;2023-08-06T03:46:40;19.40;73.20
49549;DHT22;35450;44.518;7.466;2023-08-06T03:49:46;19.20;69.30
49549;DHT22;35450;44.518;7.466;2023-08-06T03:52:51;19.10;66.70
49549;DHT22;35450;44.518;7.466;2023-08-06T03:55:55;19.20;65.20
49549;DHT22;35450;44.518;7.466;2023-08-06T03:59:03;19.10;63.50
49549;DHT22;35450;44.518;7.466;2023-08-06T04:02:07;19.20;67.70
49549;DHT22;35450;44.518;7.466;2023-08-06T04:05:11;19.30;69.30
49549;DHT22;35450;44.518;7.466;2023-08-06T04:08:16;19.30;69.70
49549;DHT22;35450;44.518;7.466;2023-08-06T04:11:20;19.30;66.80
49549;DHT22;35450;44.518;7.466;2023-08-06T04:14:25;19.30;67.80
49549;DHT22;35450;44.518;7.466;2023-08-06T04:17:30;19.30;68.70
49549;DHT22;35450;44.518;7.466;2023-08-06T04:20:34;19.20;69.70
49549;DHT22;35450;44.518;7.466;2023-08-06T04:23:38;19.20;70.00
49549;DHT22;35450;44.518;7.466;2023-08-06T04:26:44;19.20;70.00
49549;DHT22;35450;44.518;7.466;2023-08-06T04:29:49;19.10;70.90
49549;DHT22;35450;44.518;7.466;2023-08-06T04:32:56;18.90;68.20
49549;DHT22;35450;44.518;7.466;2023-08-06T04:36:00;19.20;56.90
49549;DHT22;35450;44.518;7.466;2023-08-06T04:39:04;19.60;53.60
49549;DHT22;35450;44.518;7.466;2023-08-06T04:42:09;20.00;52.40
49549;DHT22;35450;44.518;7.466;2023-08-06T04:45:13;20.30;53.30
49549;DHT22;35450;44.518;7.466;2023-08-06T04:48:17;20.50;52.80
49549;DHT22;35450;44.518;7.466;2023-08-06T04:51:21;20.50;54.10
49549;DHT22;35450;44.518;7.466;2023-08-06T04:54:25;20.50;53.80
49549;DHT22;35450;44.518;7.466;2023-08-06T04:57:29;20.50;55.20
49549;DHT22;35450;44.518;7.466;2023-08-06T05:00:33;20.60;56.60
49549;DHT22;35450;44.518;7.466;2023-08-06T05:03:37;20.50;59.90
49549;DHT22;35450;44.518;7.466;2023-08-06T05:06:41;20.40;61.00
49549;DHT22;35450;44.518;7.466;2023-08-06T05:09:45;20.30;63.00
49549;DHT22;35450;44.518;7.466;2023-08-06T05:12:49;20.20;63.60
49549;DHT22;35450;44.518;7.466;2023-08-06T05:15:54;20.30;63.90
49549;DHT22;35450;44.518;7.466;2023-08-06T05:18:58;20.10;64.00
49549;DHT22;35450;44.518;7.466;2023-08-06T05:22:02;20.00;62.40
49549;DHT22;35450;44.518;7.466;2023-08-06T05:25:06;20.00;62.50
49549;DHT22;35450;44.518;7.466;2023-08-06T05:28:10;20.00;65.40
49549;DHT22;35450;44.518;7.466;2023-08-06T05:31:14;20.10;60.10
49549;DHT22;35450;44.518;7.466;2023-08-06T05:34:18;20.20;63.60
49549;DHT22;35450;44.518;7.466;2023-08-06T05:37:22;20.30;61.50
49549;DHT22;35450;44.518;7.466;2023-08-06T05:40:26;20.50;56.60
49549;DHT22;35450;44.518;7.466;2023-08-06T05:43:30;20.60;63.70
49549;DHT22;35450;44.518;7.466;2023-08-06T05:46:34;20.60;68.20
49549;DHT22;35450;44.518;7.466;2023-08-06T05:49:38;20.50;66.70
49549;DHT22;35450;44.518;7.466;2023-08-06T05:52:42;20.50;64.20
49549;DHT22;35450;44.518;7.466;2023-08-06T05:55:47;20.60;59.90
49549;DHT22;35450;44.518;7.466;2023-08-06T05:58:51;20.70;58.60
49549;DHT22;35450;44.518;7.466;2023-08-06T06:01:56;20.80;57.50
49549;DHT22;35450;44.518;7.466;2023-08-06T06:05:00;20.90;55.60
49549;DHT22;35450;44.518;7.466;2023-08-06T06:08:04;21.00;56.90
49549;DHT22;35450;44.518;7.466;2023-08-06T06:11:08;21.10;57.40
49549;DHT22;35450;44.518;7.466;2023-08-06T06:14:12;21.20;59.80
49549;DHT22;35450;44.518;7.466;2023-08-06T06:17:16;21.20;64.90
49549;DHT22;35450;44.518;7.466;2023-08-06T06:20:20;21.20;67.70
49549;DHT22;35450;44.518;7.466;2023-08-06T06:23:24;21.20;70.60
49549;DHT22;35450;44.518;7.466;2023-08-06T06:26:28;21.10;72.00
49549;DHT22;35450;44.518;7.466;2023-08-06T06:29:31;21.10;71.00
49549;DHT22;35450;44.518;7.466;2023-08-06T06:32:36;21.10;73.40
49549;DHT22;35450;44.518;7.466;2023-08-06T06:35:40;21.10;73.10
49549;DHT22;35450;44.518;7.466;2023-08-06T06:38:44;21.10;71.70
49549;DHT22;35450;44.518;7.466;2023-08-06T06:41:47;21.20;71.30
49549;DHT22;35450;44.518;7.466;2023-08-06T06:45:03;21.10;70.90
49549;DHT22;35450;44.518;7.466;2023-08-06T06:48:06;21.20;70.20
49549;DHT22;35450;44.518;7.466;2023-08-06T06:51:10;21.30;67.90
49549;DHT22;35450;44.518;7.466;2023-08-06T06:54:14;21.30;68.10
49549;DHT22;35450;44.518;7.466;2023-08-06T06:57:18;21.40;69.30
49549;DHT22;35450;44.518;7.466;2023-08-06T07:00:22;21.40;67.30
49549;DHT22;35450;44.518;7.466;2023-08-06T07:03:26;21.50;66.40
49549;DHT22;35450;44.518;7.466;2023-08-06T07:06:31;21.50;66.80
49549;DHT22;35450;44.518;7.466;2023-08-06T07:09:35;21.60;70.00
49549;DHT22;35450;44.518;7.466;2023-08-06T07:12:39;21.60;71.20
49549;DHT22;35450;44.518;7.466;2023-08-06T07:15:43;21.60;69.40
49549;DHT22;35450;44.518;7.466;2023-08-06T07:18:47;21.70;65.10
49549;DHT22;35450;44.518;7.466;2023-08-06T07:21:51;21.70;65.90
49549;DHT22;35450;44.518;7.466;2023-08-06T07:24:55;21.70;63.50
49549;DHT22;35450;44.518;7.466;2023-08-06T07:27:59;21.80;61.50
49549;DHT22;35450;44.518;7.466;2023-08-06T07:31:06;21.80;61.20
49549;DHT22;35450;44.518;7.466;2023-08-06T07:34:10;21.90;59.60
49549;DHT22;35450;44.518;7.466;2023-08-06T07:37:13;21.90;60.10
49549;DHT22;35450;44.518;7.466;2023-08-06T07:40:17;22.00;61.40
49549;DHT22;35450;44.518;7.466;2023-08-06T07:43:22;22.00;60.40
49549;DHT22;35450;44.518;7.466;2023-08-06T07:46:26;22.00;59.80
49549;DHT22;35450;44.518;7.466;2023-08-06T07:49:29;22.10;60.00
49549;DHT22;35450;44.518;7.466;2023-08-06T07:52:33;22.10;57.40
49549;DHT22;35450;44.518;7.466;2023-08-06T07:55:38;22.10;58.80
49549;DHT22;35450;44.518;7.466;2023-08-06T07:58:42;22.20;59.30
49549;DHT22;35450;44.518;7.466;2023-08-06T08:01:46;22.20;58.30
49549;DHT22;35450;44.518;7.466;2023-08-06T08:04:50;22.20;57.50
49549;DHT22;35450;44.518;7.466;2023-08-06T08:07:54;22.30;58.30
49549;DHT22;35450;44.518;7.466;2023-08-06T08:10:58;22.30;58.80
49549;DHT22;35450;44.518;7.466;2023-08-06T08:14:04;22.40;60.70
49549;DHT22;35450;44.518;7.466;2023-08-06T08:17:08;22.40;61.10
49549;DHT22;35450;44.518;7.466;2023-08-06T08:20:12;22.50;62.30
49549;DHT22;35450;44.518;7.466;2023-08-06T08:23:16;22.40;58.80
49549;DHT22;35450;44.518;7.466;2023-08-06T08:26:20;22.40;56.70
49549;DHT22;35450;44.518;7.466;2023-08-06T08:29:24;22.50;55.00
49549;DHT22;35450;44.518;7.466;2023-08-06T08:32:27;22.50;55.60
49549;DHT22;35450;44.518;7.466;2023-08-06T08:35:31;22.50;56.20
49549;DHT22;35450;44.518;7.466;2023-08-06T08:38:36;22.60;54.10
49549;DHT22;35450;44.518;7.466;2023-08-06T08:41:40;22.70;54.40
49549;DHT22;35450;44.518;7.466;2023-08-06T08:44:45;22.70;54.30
49549;DHT22;35450;44.518;7.466;2023-08-06T08:47:49;22.70;54.40
49549;DHT22;35450;44.518;7.466;2023-08-06T08:50:53;22.80;52.20
49549;DHT22;35450;44.518;7.466;2023-08-06T08:53:56;22.80;51.40
49549;DHT22;35450;44.518;7.466;2023-08-06T08:57:01;22.80;52.00
49549;DHT22;35450;44.518;7.466;2023-08-06T09:00:06;22.90;52.60
49549;DHT22;35450;44.518;7.466;2023-08-06T09:03:10;22.90;52.30
49549;DHT22;35450;44.518;7.466;2023-08-06T09:06:15;23.00;50.00
49549;DHT22;35450;44.518;7.466;2023-08-06T09:09:30;23.10;51.40
49549;DHT22;35450;44.518;7.466;2023-08-06T09:12:35;23.20;51.50
49549;DHT22;35450;44.518;7.466;2023-08-06T09:15:39;23.20;50.20
49549;DHT22;35450;44.518;7.466;2023-08-06T09:18:43;23.10;49.50
49549;DHT22;35450;44.518;7.466;2023-08-06T09:21:51;23.10;50.40
49549;DHT22;35450;44.518;7.466;2023-08-06T09:24:56;23.10;50.60
49549;DHT22;35450;44.518;7.466;2023-08-06T09:28:00;23.10;50.40
49549;DHT22;35450;44.518;7.466;2023-08-06T09:31:07;23.10;50.90
49549;DHT22;35450;44.518;7.466;2023-08-06T09:34:16;23.20;50.50
49549;DHT22;35450;44.518;7.466;2023-08-06T09:37:23;23.30;50.80
49549;DHT22;35450;44.518;7.466;2023-08-06T09:40:31;23.40;49.70
49549;DHT22;35450;44.518;7.466;2023-08-06T09:43:43;23.40;50.00
49549;DHT22;35450;44.518;7.466;2023-08-06T09:46:57;23.40;50.00
49549;DHT22;35450;44.518;7.466;2023-08-06T09:50:01;23.40;50.10
49549;DHT22;35450;44.518;7.466;2023-08-06T09:53:07;23.50;51.90
49549;DHT22;35450;44.518;7.466;2023-08-06T09:56:13;23.50;52.40
49549;DHT22;35450;44.518;7.466;2023-08-06T09:59:19;23.60;52.30
49549;DHT22;35450;44.518;7.466;2023-08-06T10:02:25;23.60;52.60
49549;DHT22;35450;44.518;7.466;2023-08-06T10:05:31;23.70;52.20
49549;DHT22;35450;44.518;7.466;2023-08-06T10:08:36;23.70;51.90
49549;DHT22;35450;44.518;7.466;2023-08-06T10:11:42;23.80;50.60
49549;DHT22;35450;44.518;7.466;2023-08-06T10:14:46;23.70;50.90
49549;DHT22;35450;44.518;7.466;2023-08-06T10:17:56;23.80;51.00
49549;DHT22;35450;44.518;7.466;2023-08-06T10:21:01;23.90;50.70
49549;DHT22;35450;44.518;7.466;2023-08-06T10:24:08;23.90;50.40
49549;DHT22;35450;44.518;7.466;2023-08-06T10:27:30;23.90;50.20
49549;DHT22;35450;44.518;7.466;2023-08-06T10:30:46;23.90;50.80
49549;DHT22;35450;44.518;7.466;2023-08-06T10:33:51;23.90;50.10
49549;DHT22;35450;44.518;7.466;2023-08-06T10:36:55;24.00;53.20
49549;DHT22;35450;44.518;7.466;2023-08-06T10:39:59;24.00;53.40
49549;DHT22;35450;44.518;7.466;2023-08-06T10:43:04;24.00;53.30
49549;DHT22;35450;44.518;7.466;2023-08-06T10:46:27;24.10;53.20
49549;DHT22;35450;44.518;7.466;2023-08-06T10:49:31;24.20;51.60
49549;DHT22;35450;44.518;7.466;2023-08-06T10:52:35;24.20;50.70
49549;DHT22;35450;44.518;7.466;2023-08-06T10:55:39;24.20;50.50
49549;DHT22;35450;44.518;7.466;2023-08-06T10:58:45;24.20;52.10
49549;DHT22;35450;44.518;7.466;2023-08-06T11:01:50;24.20;50.50
49549;DHT22;35450;44.518;7.466;2023-08-06T11:04:54;24.30;50.60
49549;DHT22;35450;44.518;7.466;2023-08-06T11:07:58;24.30;49.60
49549;DHT22;35450;44.518;7.466;2023-08-06T11:11:12;24.30;50.40
49549;DHT22;35450;44.518;7.466;2023-08-06T11:14:16;24.30;52.30
49549;DHT22;35450;44.518;7.466;2023-08-06T11:17:21;24.30;52.60
49549;DHT22;35450;44.518;7.466;2023-08-06T11:20:25;24.40;51.60
49549;DHT22;35450;44.518;7.466;2023-08-06T11:23:29;24.50;52.40
49549;DHT22;35450;44.518;7.466;2023-08-06T11:26:33;24.50;53.30
49549;DHT22;35450;44.518;7.466;2023-08-06T11:29:38;24.50;52.70
49549;DHT22;35450;44.518;7.466;2023-08-06T11:32:46;24.50;51.60
49549;DHT22;35450;44.518;7.466;2023-08-06T11:35:52;24.60;49.70
49549;DHT22;35450;44.518;7.466;2023-08-06T11:38:55;24.50;49.40
49549;DHT22;35450;44.518;7.466;2023-08-06T11:41:59;24.50;48.90
49549;DHT22;35450;44.518;7.466;2023-08-06T11:45:07;24.50;50.70
49549;DHT22;35450;44.518;7.466;2023-08-06T11:48:13;24.60;52.80
49549;DHT22;35450;44.518;7.466;2023-08-06T11:51:17;24.60;52.30
49549;DHT22;35450;44.518;7.466;2023-08-06T11:54:31;24.70;50.20
49549;DHT22;35450;44.518;7.466;2023-08-06T11:57:39;24.70;46.10
49549;DHT22;35450;44.518;7.466;2023-08-06T12:00:43;24.70;46.70
49549;DHT22;35450;44.518;7.466;2023-08-06T12:03:47;24.70;48.80
49549;DHT22;35450;44.518;7.466;2023-08-06T12:06:51;24.80;50.30
49549;DHT22;35450;44.518;7.466;2023-08-06T12:09:57;24.80;50.40
49549;DHT22;35450;44.518;7.466;2023-08-06T12:13:01;24.80;51.20
49549;DHT22;35450;44.518;7.466;2023-08-06T12:16:06;24.80;49.70
49549;DHT22;35450;44.518;7.466;2023-08-06T12:19:10;24.80;48.20
49549;DHT22;35450;44.518;7.466;2023-08-06T12:22:14;24.90;49.00
49549;DHT22;35450;44.518;7.466;2023-08-06T12:25:18;24.90;47.70
49549;DHT22;35450;44.518;7.466;2023-08-06T12:28:22;24.90;48.50
49549;DHT22;35450;44.518;7.466;2023-08-06T12:31:27;25.00;48.80
49549;DHT22;35450;44.518;7.466;2023-08-06T12:34:30;25.00;49.20
49549;DHT22;35450;44.518;7.466;2023-08-06T12:37:35;25.00;49.70
49549;DHT22;35450;44.518;7.466;2023-08-06T12:40:39;25.00;48.40
49549;DHT22;35450;44.518;7.466;2023-08-06T12:43:43;25.10;48.30
49549;DHT22;35450;44.518;7.466;2023-08-06T12:46:47;25.10;48.40
49549;DHT22;35450;44.518;7.466;2023-08-06T12:49:51;25.20;50.30
49549;DHT22;35450;44.518;7.466;2023-08-06T12:52:55;25.20;49.70
49549;DHT22;35450;44.518;7.466;2023-08-06T12:55:59;25.20;49.60
49549;DHT22;35450;44.518;7.466;2023-08-06T12:59:03;25.20;48.30
49549;DHT22;35450;44.518;7.466;2023-08-06T13:02:07;25.30;49.20
49549;DHT22;35450;44.518;7.466;2023-08-06T13:05:11;25.30;49.20
49549;DHT22;35450;44.518;7.466;2023-08-06T13:08:15;25.30;49.00
49549;DHT22;35450;44.518;7.466;2023-08-06T13:11:19;25.30;48.00
49549;DHT22;35450;44.518;7.466;2023-08-06T13:14:23;25.30;47.90
49549;DHT22;35450;44.518;7.466;2023-08-06T13:17:27;25.40;49.30
49549;DHT22;35450;44.518;7.466;2023-08-06T13:20:31;25.40;50.30
49549;DHT22;35450;44.518;7.466;2023-08-06T13:23:35;25.50;50.30
49549;DHT22;35450;44.518;7.466;2023-08-06T13:26:39;25.50;49.70
49549;DHT22;35450;44.518;7.466;2023-08-06T13:29:43;25.50;48.90
49549;DHT22;35450;44.518;7.466;2023-08-06T13:32:46;25.50;50.00
49549;DHT22;35450;44.518;7.466;2023-08-06T13:35:50;25.50;49.60
49549;DHT22;35450;44.518;7.466;2023-08-06T13:38:55;25.60;49.40
49549;DHT22;35450;44.518;7.466;2023-08-06T13:41:59;25.60;48.60
49549;DHT22;35450;44.518;7.466;2023-08-06T13:45:04;25.60;48.20
49549;DHT22;35450;44.518;7.466;2023-08-06T13:48:08;25.70;48.80
49549;DHT22;35450;44.518;7.466;2023-08-06T13:51:13;25.70;48.20
49549;DHT22;35450;44.518;7.466;2023-08-06T13:54:17;25.70;48.20
49549;DHT22;35450;44.518;7.466;2023-08-06T13:57:22;25.60;48.00
49549;DHT22;35450;44.518;7.466;2023-08-06T14:00:26;25.70;48.40
49549;DHT22;35450;44.518;7.466;2023-08-06T14:03:30;25.80;47.80
49549;DHT22;35450;44.518;7.466;2023-08-06T14:06:34;25.80;48.90
49549;DHT22;35450;44.518;7.466;2023-08-06T14:09:38;25.80;48.20
49549;DHT22;35450;44.518;7.466;2023-08-06T14:12:43;25.80;47.80
49549;DHT22;35450;44.518;7.466;2023-08-06T14:15:47;25.90;47.30
49549;DHT22;35450;44.518;7.466;2023-08-06T14:18:51;26.00;47.10
49549;DHT22;35450;44.518;7.466;2023-08-06T14:21:55;26.00;47.70
49549;DHT22;35450;44.518;7.466;2023-08-06T14:24:59;26.20;46.50
49549;DHT22;35450;44.518;7.466;2023-08-06T14:28:04;26.20;47.20
49549;DHT22;35450;44.518;7.466;2023-08-06T14:31:09;26.20;47.10
49549;DHT22;35450;44.518;7.466;2023-08-06T14:34:13;26.30;46.60
49549;DHT22;35450;44.518;7.466;2023-08-06T14:37:17;26.30;47.10
49549;DHT22;35450;44.518;7.466;2023-08-06T14:40:21;26.30;48.30
49549;DHT22;35450;44.518;7.466;2023-08-06T14:43:25;26.40;45.80
49549;DHT22;35450;44.518;7.466;2023-08-06T14:46:29;26.50;44.30
49549;DHT22;35450;44.518;7.466;2023-08-06T14:49:34;26.50;45.30
49549;DHT22;35450;44.518;7.466;2023-08-06T14:52:37;26.60;45.00
49549;DHT22;35450;44.518;7.466;2023-08-06T14:55:41;26.60;44.50
49549;DHT22;35450;44.518;7.466;2023-08-06T14:58:45;26.70;44.40
49549;DHT22;35450;44.518;7.466;2023-08-06T15:01:49;26.70;44.60
49549;DHT22;35450;44.518;7.466;2023-08-06T15:04:55;26.70;42.50
49549;DHT22;35450;44.518;7.466;2023-08-06T15:07:59;26.80;43.50
49549;DHT22;35450;44.518;7.466;2023-08-06T15:11:03;26.90;42.20
49549;DHT22;35450;44.518;7.466;2023-08-06T15:14:08;26.90;42.50
49549;DHT22;35450;44.518;7.466;2023-08-06T15:17:12;27.00;42.70
49549;DHT22;35450;44.518;7.466;2023-08-06T15:20:15;27.10;44.30
49549;DHT22;35450;44.518;7.466;2023-08-06T15:23:19;27.20;42.50
49549;DHT22;35450;44.518;7.466;2023-08-06T15:26:23;27.20;43.20
49549;DHT22;35450;44.518;7.466;2023-08-06T15:29:28;27.50;43.10
49549;DHT22;35450;44.518;7.466;2023-08-06T15:32:31;28.40;42.20
49549;DHT22;35450;44.518;7.466;2023-08-06T15:35:35;29.40;40.50
49549;DHT22;35450;44.518;7.466;2023-08-06T15:38:39;30.50;39.30
49549;DHT22;35450;44.518;7.466;2023-08-06T15:41:43;31.40;38.80
49549;DHT22;35450;44.518;7.466;2023-08-06T15:44:47;32.40;38.30
49549;DHT22;35450;44.518;7.466;2023-08-06T15:47:51;32.70;38.20
49549;DHT22;35450;44.518;7.466;2023-08-06T15:50:56;33.00;38.70
49549;DHT22;35450;44.518;7.466;2023-08-06T15:54:01;33.60;36.60
49549;DHT22;35450;44.518;7.466;2023-08-06T15:57:07;33.40;36.70
49549;DHT22;35450;44.518;7.466;2023-08-06T16:00:11;33.50;36.40
49549;DHT22;35450;44.518;7.466;2023-08-06T16:03:15;33.70;36.10
49549;DHT22;35450;44.518;7.466;2023-08-06T16:06:19;34.00;35.10
49549;DHT22;35450;44.518;7.466;2023-08-06T16:09:24;33.90;36.60
49549;DHT22;35450;44.518;7.466;2023-08-06T16:12:28;33.80;36.20
49549;DHT22;35450;44.518;7.466;2023-08-06T16:15:32;33.40;35.80
49549;DHT22;35450;44.518;7.466;2023-08-06T16:18:36;32.70;36.40
49549;DHT22;35450;44.518;7.466;2023-08-06T16:21:40;31.80;37.20
49549;DHT22;35450;44.518;7.466;2023-08-06T16:24:44;30.90;38.00
49549;DHT22;35450;44.518;7.466;2023-08-06T16:27:48;30.20;38.70
49549;DHT22;35450;44.518;7.466;2023-08-06T16:30:52;29.70;38.50
49549;DHT22;35450;44.518;7.466;2023-08-06T16:33:58;29.40;39.40
49549;DHT22;35450;44.518;7.466;2023-08-06T16:37:02;29.10;39.80
49549;DHT22;35450;44.518;7.466;2023-08-06T16:40:07;29.10;40.30
49549;DHT22;35450;44.518;7.466;2023-08-06T16:43:13;29.10;40.80
49549;DHT22;35450;44.518;7.466;2023-08-06T16:46:17;29.00;40.90
49549;DHT22;35450;44.518;7.466;2023-08-06T16:49:21;29.00;40.80
49549;DHT22;35450;44.518;7.466;2023-08-06T16:52:25;29.00;40.80
49549;DHT22;35450;44.518;7.466;2023-08-06T16:55:33;29.00;41.10
49549;DHT22;35450;44.518;7.466;2023-08-06T16:58:37;29.00;41.40
49549;DHT22;35450;44.518;7.466;2023-08-06T17:01:41;29.00;41.30
49549;DHT22;35450;44.518;7.466;2023-08-06T17:04:45;29.10;41.60
49549;DHT22;35450;44.518;7.466;2023-08-06T17:07:50;29.10;42.00
49549;DHT22;35450;44.518;7.466;2023-08-06T17:10:56;29.10;42.80
49549;DHT22;35450;44.518;7.466;2023-08-06T17:14:00;28.80;44.60
49549;DHT22;35450;44.518;7.466;2023-08-06T17:17:04;28.60;45.50
49549;DHT22;35450;44.518;7.466;2023-08-06T17:20:09;28.30;48.30
49549;DHT22;35450;44.518;7.466;2023-08-06T17:23:13;28.10;45.50
49549;DHT22;35450;44.518;7.466;2023-08-06T17:26:17;27.60;46.00
49549;DHT22;35450;44.518;7.466;2023-08-06T17:29:21;27.60;46.70
49549;DHT22;35450;44.518;7.466;2023-08-06T17:32:25;27.40;46.70
49549;DHT22;35450;44.518;7.466;2023-08-06T17:35:30;27.30;46.30
49549;DHT22;35450;44.518;7.466;2023-08-06T17:38:36;27.40;46.30
49549;DHT22;35450;44.518;7.466;2023-08-06T17:41:40;27.50;47.70
49549;DHT22;35450;44.518;7.466;2023-08-06T17:44:44;27.30;47.00
49549;DHT22;35450;44.518;7.466;2023-08-06T17:47:48;27.20;47.40
49549;DHT22;35450;44.518;7.466;2023-08-06T17:50:52;27.00;48.50
49549;DHT22;35450;44.518;7.466;2023-08-06T17:53:56;26.90;49.00
49549;DHT22;35450;44.518;7.466;2023-08-06T17:57:00;26.60;48.90
49549;DHT22;35450;44.518;7.466;2023-08-06T18:00:05;26.20;50.20
49549;DHT22;35450;44.518;7.466;2023-08-06T18:03:15;26.10;50.70
49549;DHT22;35450;44.518;7.466;2023-08-06T18:06:20;25.80;52.00
49549;DHT22;35450;44.518;7.466;2023-08-06T18:09:25;25.60;51.70
49549;DHT22;35450;44.518;7.466;2023-08-06T18:12:29;25.60;51.30
49549;DHT22;35450;44.518;7.466;2023-08-06T18:15:33;25.60;51.50
49549;DHT22;35450;44.518;7.466;2023-08-06T18:18:37;25.50;50.30
49549;DHT22;35450;44.518;7.466;2023-08-06T18:21:41;25.30;49.40
49549;DHT22;35450;44.518;7.466;2023-08-06T18:24:45;25.00;50.20
49549;DHT22;35450;44.518;7.466;2023-08-06T18:27:49;24.80;50.60
49549;DHT22;35450;44.518;7.466;2023-08-06T18:30:52;24.80;51.60
49549;DHT22;35450;44.518;7.466;2023-08-06T18:33:56;24.70;51.80
49549;DHT22;35450;44.518;7.466;2023-08-06T18:37:01;24.60;52.60
49549;DHT22;35450;44.518;7.466;2023-08-06T18:40:09;24.50;51.10
49549;DHT22;35450;44.518;7.466;2023-08-06T18:43:13;24.40;50.80
49549;DHT22;35450;44.518;7.466;2023-08-06T18:46:20;24.30;51.60
49549;DHT22;35450;44.518;7.466;2023-08-06T18:49:24;24.20;53.20
49549;DHT22;35450;44.518;7.466;2023-08-06T18:52:28;24.20;54.30
49549;DHT22;35450;44.518;7.466;2023-08-06T18:55:32;24.00;53.00
49549;DHT22;35450;44.518;7.466;2023-08-06T18:58:38;23.80;52.00
49549;DHT22;35450;44.518;7.466;2023-08-06T19:01:42;23.70;51.80
49549;DHT22;35450;44.518;7.466;2023-08-06T19:04:46;23.60;51.40
49549;DHT22;35450;44.518;7.466;2023-08-06T19:07:51;23.60;52.10
49549;DHT22;35450;44.518;7.466;2023-08-06T19:10:55;23.40;51.50
49549;DHT22;35450;44.518;7.466;2023-08-06T19:13:59;23.40;51.60
49549;DHT22;35450;44.518;7.466;2023-08-06T19:17:03;23.20;52.30
49549;DHT22;35450;44.518;7.466;2023-08-06T19:20:08;23.30;53.90
49549;DHT22;35450;44.518;7.466;2023-08-06T19:23:12;23.10;54.50
49549;DHT22;35450;44.518;7.466;2023-08-06T19:26:21;23.00;54.50